sensor_id;sensor_type;location;lat;lon;timestamp;temperature;humidity
51908;DHT22;39320;53.214;6.556;2023-04-08T00:01:08;8.10;99.90
51908;DHT22;39320;53.214;6.556;2023-04-08T00:03:33;8.10;99.90
51908;DHT22;39320;53.214;6.556;2023-04-08T00:05:59;8.00;99.90
51908;DHT22;39320;53.214;6.556;2023-04-08T00:08:27;8.00;99.90
51908;DHT22;39320;53.214;6.556;2023-04-08T00:10:53;8.10;99.90
51908;DHT22;39320;53.214;6.556;2023-04-08T00:13:19;8.10;99.90
51908;DHT22;39320;53.214;6.556;2023-04-08T00:15:45;8.10;99.90
51908;DHT22;39320;53.214;6.556;2023-04-08T00:18:13;8.00;99.90
51908;DHT22;39320;53.214;6.556;2023-04-08T00:20:41;8.10;99.90
51908;DHT22;39320;53.214;6.556;2023-04-08T00:23:07;8.10;99.90
51908;DHT22;39320;53.214;6.556;2023-04-08T00:25:32;8.10;99.90
51908;DHT22;39320;53.214;6.556;2023-04-08T00:27:58;8.00;99.90
51908;DHT22;39320;53.214;6.556;2023-04-08T00:30:24;8.00;99.90
51908;DHT22;39320;53.214;6.556;2023-04-08T00:32:51;8.00;99.90
51908;DHT22;39320;53.214;6.556;2023-04-08T00:35:17;7.90;99.90
51908;DHT22;39320;53.214;6.556;2023-04-08T00:37:43;8.00;99.90
51908;DHT22;39320;53.214;6.556;2023-04-08T00:40:09;7.90;99.90
51908;DHT22;39320;53.214;6.556;2023-04-08T00:42:35;7.90;99.90
51908;DHT22;39320;53.214;6.556;2023-04-08T00:45:04;7.90;99.90
51908;DHT22;39320;53.214;6.556;2023-04-08T00:47:30;8.00;99.90
51908;DHT22;39320;53.214;6.556;2023-04-08T00:49:56;8.00;99.90
51908;DHT22;39320;53.214;6.556;2023-04-08T00:52:21;8.00;99.90
51908;DHT22;39320;53.214;6.556;2023-04-08T00:54:47;8.00;99.90
51908;DHT22;39320;53.214;6.556;2023-04-08T00:57:13;7.80;99.90
51908;DHT22;39320;53.214;6.556;2023-04-08T00:59:43;7.70;99.90
51908;DHT22;39320;53.214;6.556;2023-04-08T01:07:29;7.60;99.90
51908;DHT22;39320;53.214;6.556;2023-04-08T01:09:58;7.60;99.90
51908;DHT22;39320;53.214;6.556;2023-04-08T01:12:29;7.70;99.90
51908;DHT22;39320;53.214;6.556;2023-04-08T01:15:02;7.70;99.90
51908;DHT22;39320;53.214;6.556;2023-04-08T01:17:30;7.50;99.90
51908;DHT22;39320;53.214;6.556;2023-04-08T01:19:59;7.60;99.90
51908;DHT22;39320;53.214;6.556;2023-04-08T01:25:01;7.60;99.90
51908;DHT22;39320;53.214;6.556;2023-04-08T01:27:29;7.60;99.90
51908;DHT22;39320;53.214;6.556;2023-04-08T01:29:57;7.50;99.90
51908;DHT22;39320;53.214;6.556;2023-04-08T01:32:24;7.50;99.90
51908;DHT22;39320;53.214;6.556;2023-04-08T01:34:52;7.70;99.90
51908;DHT22;39320;53.214;6.556;2023-04-08T01:37:19;7.50;99.90
51908;DHT22;39320;53.214;6.556;2023-04-08T01:39:47;7.40;99.90
51908;DHT22;39320;53.214;6.556;2023-04-08T01:42:15;7.50;99.90
51908;DHT22;39320;53.214;6.556;2023-04-08T01:44:44;7.50;99.90
51908;DHT22;39320;53.214;6.556;2023-04-08T01:47:12;7.50;99.90
51908;DHT22;39320;53.214;6.556;2023-04-08T01:49:38;7.50;99.90
51908;DHT22;39320;53.214;6.556;2023-04-08T01:52:05;7.50;99.90
51908;DHT22;39320;53.214;6.556;2023-04-08T01:54:32;7.50;99.90
51908;DHT22;39320;53.214;6.556;2023-04-08T01:57:01;7.40;99.90
51908;DHT22;39320;53.214;6.556;2023-04-08T01:59:34;7.40;99.90
51908;DHT22;39320;53.214;6.556;2023-04-08T02:02:01;7.40;99.90
51908;DHT22;39320;53.214;6.556;2023-04-08T02:04:33;7.50;99.90
51908;DHT22;39320;53.214;6.556;2023-04-08T02:07:00;7.50;99.90
51908;DHT22;39320;53.214;6.556;2023-04-08T02:09:27;7.50;99.90
51908;DHT22;39320;53.214;6.556;2023-04-08T02:11:53;7.40;99.90
51908;DHT22;39320;53.214;6.556;2023-04-08T02:14:18;7.40;99.90
51908;DHT22;39320;53.214;6.556;2023-04-08T02:16:53;7.30;99.90
51908;DHT22;39320;53.214;6.556;2023-04-08T02:21:58;7.30;99.90
51908;DHT22;39320;53.214;6.556;2023-04-08T02:24:27;7.30;99.90
51908;DHT22;39320;53.214;6.556;2023-04-08T02:26:55;7.20;99.90
51908;DHT22;39320;53.214;6.556;2023-04-08T02:29:21;7.30;99.90
51908;DHT22;39320;53.214;6.556;2023-04-08T02:31:49;7.30;99.90
51908;DHT22;39320;53.214;6.556;2023-04-08T02:34:16;7.40;99.90
51908;DHT22;39320;53.214;6.556;2023-04-08T02:36:43;7.40;99.90
51908;DHT22;39320;53.214;6.556;2023-04-08T02:39:11;7.50;99.90
51908;DHT22;39320;53.214;6.556;2023-04-08T02:41:37;7.40;99.90
51908;DHT22;39320;53.214;6.556;2023-04-08T02:44:03;7.50;99.90
51908;DHT22;39320;53.214;6.556;2023-04-08T02:46:29;7.50;99.90
51908;DHT22;39320;53.214;6.556;2023-04-08T02:48:54;7.40;99.90
51908;DHT22;39320;53.214;6.556;2023-04-08T02:51:20;7.40;99.90
51908;DHT22;39320;53.214;6.556;2023-04-08T02:53:46;7.30;99.90
51908;DHT22;39320;53.214;6.556;2023-04-08T02:56:12;7.40;99.90
51908;DHT22;39320;53.214;6.556;2023-04-08T02:58:38;7.50;99.90
51908;DHT22;39320;53.214;6.556;2023-04-08T03:01:03;7.40;99.90
51908;DHT22;39320;53.214;6.556;2023-04-08T03:03:30;7.40;99.90
51908;DHT22;39320;53.214;6.556;2023-04-08T03:05:56;7.20;99.90
51908;DHT22;39320;53.214;6.556;2023-04-08T03:08:22;7.40;99.90
51908;DHT22;39320;53.214;6.556;2023-04-08T03:10:48;7.40;99.90
51908;DHT22;39320;53.214;6.556;2023-04-08T03:13:15;7.50;99.90
51908;DHT22;39320;53.214;6.556;2023-04-08T03:15:41;7.50;99.90
51908;DHT22;39320;53.214;6.556;2023-04-08T03:18:06;7.50;99.90
51908;DHT22;39320;53.214;6.556;2023-04-08T03:20:32;7.50;99.90
51908;DHT22;39320;53.214;6.556;2023-04-08T03:22:58;7.50;99.90
51908;DHT22;39320;53.214;6.556;2023-04-08T03:25:24;7.50;99.90
51908;DHT22;39320;53.214;6.556;2023-04-08T03:27:53;7.50;99.90
51908;DHT22;39320;53.214;6.556;2023-04-08T03:30:19;7.60;99.90
51908;DHT22;39320;53.214;6.556;2023-04-08T03:32:45;7.60;99.90
51908;DHT22;39320;53.214;6.556;2023-04-08T03:35:11;7.60;99.90
51908;DHT22;39320;53.214;6.556;2023-04-08T03:37:37;7.50;99.90
51908;DHT22;39320;53.214;6.556;2023-04-08T03:40:03;7.40;99.90
51908;DHT22;39320;53.214;6.556;2023-04-08T03:42:29;7.40;99.90
51908;DHT22;39320;53.214;6.556;2023-04-08T03:44:55;7.30;99.90
51908;DHT22;39320;53.214;6.556;2023-04-08T03:47:21;7.40;99.90
51908;DHT22;39320;53.214;6.556;2023-04-08T03:49:47;7.30;99.90
51908;DHT22;39320;53.214;6.556;2023-04-08T03:52:13;7.20;99.90
51908;DHT22;39320;53.214;6.556;2023-04-08T03:54:38;7.20;99.90
51908;DHT22;39320;53.214;6.556;2023-04-08T03:57:04;7.20;99.90
51908;DHT22;39320;53.214;6.556;2023-04-08T03:59:30;7.20;99.90
51908;DHT22;39320;53.214;6.556;2023-04-08T04:01:58;7.20;99.90
51908;DHT22;39320;53.214;6.556;2023-04-08T04:04:24;7.20;99.90
51908;DHT22;39320;53.214;6.556;2023-04-08T04:06:49;7.20;99.90
51908;DHT22;39320;53.214;6.556;2023-04-08T04:09:15;7.30;99.90
51908;DHT22;39320;53.214;6.556;2023-04-08T04:11:41;7.40;99.90
51908;DHT22;39320;53.214;6.556;2023-04-08T04:14:07;7.30;99.90
51908;DHT22;39320;53.214;6.556;2023-04-08T04:16:33;7.30;99.90
51908;DHT22;39320;53.214;6.556;2023-04-08T04:18:58;7.30;99.90
51908;DHT22;39320;53.214;6.556;2023-04-08T04:21:24;7.40;99.90
51908;DHT22;39320;53.214;6.556;2023-04-08T04:23:50;7.50;99.90
51908;DHT22;39320;53.214;6.556;2023-04-08T04:26:16;7.40;99.90
51908;DHT22;39320;53.214;6.556;2023-04-08T04:28:41;7.40;99.90
51908;DHT22;39320;53.214;6.556;2023-04-08T04:31:07;7.50;99.90
51908;DHT22;39320;53.214;6.556;2023-04-08T04:33:33;7.50;99.90
51908;DHT22;39320;53.214;6.556;2023-04-08T04:35:58;7.40;99.90
51908;DHT22;39320;53.214;6.556;2023-04-08T04:38:24;7.40;99.90
51908;DHT22;39320;53.214;6.556;2023-04-08T04:40:51;7.40;99.90
51908;DHT22;39320;53.214;6.556;2023-04-08T04:43:17;7.30;99.90
51908;DHT22;39320;53.214;6.556;2023-04-08T04:45:43;7.30;99.90
51908;DHT22;39320;53.214;6.556;2023-04-08T04:48:09;7.30;99.90
51908;DHT22;39320;53.214;6.556;2023-04-08T04:50:35;7.20;99.90
51908;DHT22;39320;53.214;6.556;2023-04-08T04:53:01;7.10;99.90
51908;DHT22;39320;53.214;6.556;2023-04-08T04:55:27;7.10;99.90
51908;DHT22;39320;53.214;6.556;2023-04-08T04:57:53;7.10;99.90
51908;DHT22;39320;53.214;6.556;2023-04-08T05:00:19;7.20;99.90
51908;DHT22;39320;53.214;6.556;2023-04-08T05:02:45;7.20;99.90
51908;DHT22;39320;53.214;6.556;2023-04-08T05:05:11;7.20;99.90
51908;DHT22;39320;53.214;6.556;2023-04-08T05:07:37;7.20;99.90
51908;DHT22;39320;53.214;6.556;2023-04-08T05:10:04;7.20;99.90
51908;DHT22;39320;53.214;6.556;2023-04-08T05:12:30;7.20;99.90
51908;DHT22;39320;53.214;6.556;2023-04-08T05:14:59;7.20;99.90
51908;DHT22;39320;53.214;6.556;2023-04-08T05:17:28;7.30;99.90
51908;DHT22;39320;53.214;6.556;2023-04-08T05:19:53;7.30;99.90
51908;DHT22;39320;53.214;6.556;2023-04-08T05:22:19;7.30;99.90
51908;DHT22;39320;53.214;6.556;2023-04-08T05:24:45;7.30;99.90
51908;DHT22;39320;53.214;6.556;2023-04-08T05:27:11;7.40;99.90
51908;DHT22;39320;53.214;6.556;2023-04-08T05:29:40;7.40;99.90
51908;DHT22;39320;53.214;6.556;2023-04-08T05:32:06;7.50;99.90
51908;DHT22;39320;53.214;6.556;2023-04-08T05:34:31;7.50;99.90
51908;DHT22;39320;53.214;6.556;2023-04-08T05:36:57;7.50;99.90
51908;DHT22;39320;53.214;6.556;2023-04-08T05:39:23;7.60;99.90
51908;DHT22;39320;53.214;6.556;2023-04-08T05:41:49;7.50;99.90
51908;DHT22;39320;53.214;6.556;2023-04-08T05:44:15;7.40;99.90
51908;DHT22;39320;53.214;6.556;2023-04-08T05:46:40;7.40;99.90
51908;DHT22;39320;53.214;6.556;2023-04-08T05:49:06;7.40;99.90
51908;DHT22;39320;53.214;6.556;2023-04-08T05:51:32;7.40;99.90
51908;DHT22;39320;53.214;6.556;2023-04-08T05:53:58;7.30;99.90
51908;DHT22;39320;53.214;6.556;2023-04-08T05:56:24;7.30;99.90
51908;DHT22;39320;53.214;6.556;2023-04-08T05:58:50;7.30;99.90
51908;DHT22;39320;53.214;6.556;2023-04-08T06:01:16;7.30;99.90
51908;DHT22;39320;53.214;6.556;2023-04-08T06:03:41;7.30;99.90
51908;DHT22;39320;53.214;6.556;2023-04-08T06:06:10;7.30;99.90
51908;DHT22;39320;53.214;6.556;2023-04-08T06:08:36;7.40;99.90
51908;DHT22;39320;53.214;6.556;2023-04-08T06:11:02;7.50;99.90
51908;DHT22;39320;53.214;6.556;2023-04-08T06:13:31;7.60;99.90
51908;DHT22;39320;53.214;6.556;2023-04-08T06:15:57;7.60;99.90
51908;DHT22;39320;53.214;6.556;2023-04-08T06:18:23;8.00;99.90
51908;DHT22;39320;53.214;6.556;2023-04-08T06:20:49;7.70;99.90
51908;DHT22;39320;53.214;6.556;2023-04-08T06:23:15;7.80;99.90
51908;DHT22;39320;53.214;6.556;2023-04-08T06:25:41;7.80;99.90
51908;DHT22;39320;53.214;6.556;2023-04-08T06:28:10;7.80;99.90
51908;DHT22;39320;53.214;6.556;2023-04-08T06:30:36;7.90;99.90
51908;DHT22;39320;53.214;6.556;2023-04-08T06:33:02;7.90;99.90
51908;DHT22;39320;53.214;6.556;2023-04-08T06:35:27;8.40;99.90
51908;DHT22;39320;53.214;6.556;2023-04-08T06:37:53;7.90;99.90
51908;DHT22;39320;53.214;6.556;2023-04-08T06:40:19;7.80;99.90
51908;DHT22;39320;53.214;6.556;2023-04-08T06:42:44;7.80;99.90
51908;DHT22;39320;53.214;6.556;2023-04-08T06:45:10;7.80;99.90
51908;DHT22;39320;53.214;6.556;2023-04-08T06:47:36;7.70;99.90
51908;DHT22;39320;53.214;6.556;2023-04-08T06:50:02;7.70;99.90
51908;DHT22;39320;53.214;6.556;2023-04-08T06:52:28;7.70;99.90
51908;DHT22;39320;53.214;6.556;2023-04-08T06:54:53;7.70;99.90
51908;DHT22;39320;53.214;6.556;2023-04-08T06:57:19;7.70;99.90
51908;DHT22;39320;53.214;6.556;2023-04-08T06:59:45;7.70;99.90
51908;DHT22;39320;53.214;6.556;2023-04-08T07:02:11;7.70;99.90
51908;DHT22;39320;53.214;6.556;2023-04-08T07:04:39;7.70;99.90
51908;DHT22;39320;53.214;6.556;2023-04-08T07:07:08;7.70;99.90
51908;DHT22;39320;53.214;6.556;2023-04-08T07:09:34;7.70;99.90
51908;DHT22;39320;53.214;6.556;2023-04-08T07:12:02;7.70;99.90
51908;DHT22;39320;53.214;6.556;2023-04-08T07:14:29;7.80;99.90
51908;DHT22;39320;53.214;6.556;2023-04-08T07:16:54;7.70;99.90
51908;DHT22;39320;53.214;6.556;2023-04-08T07:19:21;7.90;99.90
51908;DHT22;39320;53.214;6.556;2023-04-08T07:21:49;7.90;99.90
51908;DHT22;39320;53.214;6.556;2023-04-08T07:24:15;7.90;99.90
51908;DHT22;39320;53.214;6.556;2023-04-08T07:26:41;8.00;99.90
51908;DHT22;39320;53.214;6.556;2023-04-08T07:29:07;8.00;99.90
51908;DHT22;39320;53.214;6.556;2023-04-08T07:31:33;8.00;99.90
51908;DHT22;39320;53.214;6.556;2023-04-08T07:33:58;8.00;99.90
51908;DHT22;39320;53.214;6.556;2023-04-08T07:36:24;7.90;99.90
51908;DHT22;39320;53.214;6.556;2023-04-08T07:38:50;8.00;99.90
51908;DHT22;39320;53.214;6.556;2023-04-08T07:41:19;7.90;99.90
51908;DHT22;39320;53.214;6.556;2023-04-08T07:43:45;7.90;99.90
51908;DHT22;39320;53.214;6.556;2023-04-08T07:46:11;7.80;99.90
51908;DHT22;39320;53.214;6.556;2023-04-08T07:48:40;7.80;99.90
51908;DHT22;39320;53.214;6.556;2023-04-08T07:51:07;7.90;99.90
51908;DHT22;39320;53.214;6.556;2023-04-08T07:53:33;7.90;99.90
51908;DHT22;39320;53.214;6.556;2023-04-08T07:56:00;7.80;99.90
51908;DHT22;39320;53.214;6.556;2023-04-08T07:58:28;7.70;99.90
51908;DHT22;39320;53.214;6.556;2023-04-08T08:00:55;7.60;99.90
51908;DHT22;39320;53.214;6.556;2023-04-08T08:03:28;7.90;99.90
51908;DHT22;39320;53.214;6.556;2023-04-08T08:05:54;7.30;99.90
51908;DHT22;39320;53.214;6.556;2023-04-08T08:08:19;7.80;99.90
51908;DHT22;39320;53.214;6.556;2023-04-08T08:10:45;7.80;99.90
51908;DHT22;39320;53.214;6.556;2023-04-08T08:13:11;7.80;99.90
51908;DHT22;39320;53.214;6.556;2023-04-08T08:15:41;7.80;99.90
51908;DHT22;39320;53.214;6.556;2023-04-08T08:18:07;7.90;99.90
51908;DHT22;39320;53.214;6.556;2023-04-08T08:20:35;7.90;99.90
51908;DHT22;39320;53.214;6.556;2023-04-08T08:23:01;8.00;99.90
51908;DHT22;39320;53.214;6.556;2023-04-08T08:25:26;8.00;99.90
51908;DHT22;39320;53.214;6.556;2023-04-08T08:27:52;8.00;99.90
51908;DHT22;39320;53.214;6.556;2023-04-08T08:30:19;8.00;99.90
51908;DHT22;39320;53.214;6.556;2023-04-08T08:32:46;8.10;99.90
51908;DHT22;39320;53.214;6.556;2023-04-08T08:35:12;8.00;99.90
51908;DHT22;39320;53.214;6.556;2023-04-08T08:37:38;8.10;99.90
51908;DHT22;39320;53.214;6.556;2023-04-08T08:40:05;8.10;99.90
51908;DHT22;39320;53.214;6.556;2023-04-08T08:42:31;8.10;99.90
51908;DHT22;39320;53.214;6.556;2023-04-08T08:44:59;8.00;99.90
51908;DHT22;39320;53.214;6.556;2023-04-08T08:47:26;8.00;99.90
51908;DHT22;39320;53.214;6.556;2023-04-08T08:49:51;7.90;99.90
51908;DHT22;39320;53.214;6.556;2023-04-08T08:52:17;7.90;99.90
51908;DHT22;39320;53.214;6.556;2023-04-08T08:54:44;7.90;99.90
51908;DHT22;39320;53.214;6.556;2023-04-08T08:57:19;7.90;99.90
51908;DHT22;39320;53.214;6.556;2023-04-08T08:59:46;7.80;99.90
51908;DHT22;39320;53.214;6.556;2023-04-08T09:04:59;7.80;99.90
51908;DHT22;39320;53.214;6.556;2023-04-08T09:07:26;7.60;99.90
51908;DHT22;39320;53.214;6.556;2023-04-08T09:09:54;7.50;99.90
51908;DHT22;39320;53.214;6.556;2023-04-08T09:12:21;7.50;99.90
51908;DHT22;39320;53.214;6.556;2023-04-08T09:14:47;7.60;99.90
51908;DHT22;39320;53.214;6.556;2023-04-08T09:17:13;7.60;99.90
51908;DHT22;39320;53.214;6.556;2023-04-08T09:20:03;7.60;99.90
51908;DHT22;39320;53.214;6.556;2023-04-08T09:22:36;7.60;99.90
51908;DHT22;39320;53.214;6.556;2023-04-08T09:25:29;7.60;99.90
51908;DHT22;39320;53.214;6.556;2023-04-08T09:27:57;7.60;99.90
51908;DHT22;39320;53.214;6.556;2023-04-08T09:30:25;7.60;99.90
51908;DHT22;39320;53.214;6.556;2023-04-08T09:32:55;7.60;99.90
51908;DHT22;39320;53.214;6.556;2023-04-08T09:35:22;7.60;99.90
51908;DHT22;39320;53.214;6.556;2023-04-08T09:37:50;7.70;99.90
51908;DHT22;39320;53.214;6.556;2023-04-08T09:40:16;7.80;99.90
51908;DHT22;39320;53.214;6.556;2023-04-08T09:42:47;7.90;99.90
51908;DHT22;39320;53.214;6.556;2023-04-08T09:45:16;7.90;99.90
51908;DHT22;39320;53.214;6.556;2023-04-08T09:48:08;8.00;99.90
51908;DHT22;39320;53.214;6.556;2023-04-08T09:50:39;8.10;99.90
51908;DHT22;39320;53.214;6.556;2023-04-08T09:53:25;8.10;99.90
51908;DHT22;39320;53.214;6.556;2023-04-08T09:55:55;8.20;99.90
51908;DHT22;39320;53.214;6.556;2023-04-08T09:58:27;8.20;99.90
51908;DHT22;39320;53.214;6.556;2023-04-08T10:00:54;8.30;99.90
51908;DHT22;39320;53.214;6.556;2023-04-08T10:03:29;8.30;99.90
51908;DHT22;39320;53.214;6.556;2023-04-08T10:06:00;8.30;99.90
51908;DHT22;39320;53.214;6.556;2023-04-08T10:08:30;8.20;99.90
51908;DHT22;39320;53.214;6.556;2023-04-08T10:10:57;8.30;99.90
51908;DHT22;39320;53.214;6.556;2023-04-08T10:13:24;8.30;99.90
51908;DHT22;39320;53.214;6.556;2023-04-08T10:18:41;8.50;99.90
51908;DHT22;39320;53.214;6.556;2023-04-08T10:21:34;8.40;99.90
51908;DHT22;39320;53.214;6.556;2023-04-08T10:24:05;8.50;99.90
51908;DHT22;39320;53.214;6.556;2023-04-08T10:26:32;8.50;99.90
51908;DHT22;39320;53.214;6.556;2023-04-08T10:31:47;8.60;99.90
51908;DHT22;39320;53.214;6.556;2023-04-08T10:34:19;8.70;99.90
51908;DHT22;39320;53.214;6.556;2023-04-08T10:36:46;8.70;99.90
51908;DHT22;39320;53.214;6.556;2023-04-08T10:39:16;8.70;99.90
51908;DHT22;39320;53.214;6.556;2023-04-08T10:41:44;8.70;99.90
51908;DHT22;39320;53.214;6.556;2023-04-08T10:44:21;8.70;99.90
51908;DHT22;39320;53.214;6.556;2023-04-08T10:46:48;8.70;99.90
51908;DHT22;39320;53.214;6.556;2023-04-08T10:49:15;8.70;99.90
51908;DHT22;39320;53.214;6.556;2023-04-08T10:51:42;8.70;99.90
51908;DHT22;39320;53.214;6.556;2023-04-08T10:54:13;8.80;99.90
51908;DHT22;39320;53.214;6.556;2023-04-08T10:56:48;8.80;99.90
51908;DHT22;39320;53.214;6.556;2023-04-08T10:59:17;8.80;99.90
51908;DHT22;39320;53.214;6.556;2023-04-08T11:01:51;8.80;99.90
51908;DHT22;39320;53.214;6.556;2023-04-08T11:04:20;8.80;99.90
51908;DHT22;39320;53.214;6.556;2023-04-08T11:06:48;8.80;99.90
51908;DHT22;39320;53.214;6.556;2023-04-08T11:09:14;8.80;99.90
51908;DHT22;39320;53.214;6.556;2023-04-08T11:11:44;8.80;99.90
51908;DHT22;39320;53.214;6.556;2023-04-08T11:14:11;8.90;99.90
51908;DHT22;39320;53.214;6.556;2023-04-08T11:16:38;8.90;99.90
51908;DHT22;39320;53.214;6.556;2023-04-08T11:19:05;8.90;99.90
51908;DHT22;39320;53.214;6.556;2023-04-08T11:21:34;8.90;99.90
51908;DHT22;39320;53.214;6.556;2023-04-08T11:24:00;9.00;99.90
51908;DHT22;39320;53.214;6.556;2023-04-08T11:26:26;9.00;99.90
51908;DHT22;39320;53.214;6.556;2023-04-08T11:28:53;9.00;99.90
51908;DHT22;39320;53.214;6.556;2023-04-08T11:31:21;9.00;99.90
51908;DHT22;39320;53.214;6.556;2023-04-08T11:33:48;9.00;99.90
51908;DHT22;39320;53.214;6.556;2023-04-08T11:36:16;9.00;99.90
51908;DHT22;39320;53.214;6.556;2023-04-08T11:38:42;9.10;99.90
51908;DHT22;39320;53.214;6.556;2023-04-08T11:41:09;9.10;99.90
51908;DHT22;39320;53.214;6.556;2023-04-08T11:43:36;9.10;99.90
51908;DHT22;39320;53.214;6.556;2023-04-08T11:46:12;9.10;99.90
51908;DHT22;39320;53.214;6.556;2023-04-08T11:48:38;9.20;99.90
51908;DHT22;39320;53.214;6.556;2023-04-08T11:51:05;9.20;99.90
51908;DHT22;39320;53.214;6.556;2023-04-08T11:53:35;9.20;99.90
51908;DHT22;39320;53.214;6.556;2023-04-08T11:58:42;9.20;99.90
51908;DHT22;39320;53.214;6.556;2023-04-08T12:01:08;9.20;99.90
51908;DHT22;39320;53.214;6.556;2023-04-08T12:03:34;9.20;99.90
51908;DHT22;39320;53.214;6.556;2023-04-08T12:06:00;9.20;99.90
51908;DHT22;39320;53.214;6.556;2023-04-08T12:08:26;9.20;99.90
51908;DHT22;39320;53.214;6.556;2023-04-08T12:10:53;9.20;99.90
51908;DHT22;39320;53.214;6.556;2023-04-08T12:13:18;9.30;99.90
51908;DHT22;39320;53.214;6.556;2023-04-08T12:15:45;9.20;99.90
51908;DHT22;39320;53.214;6.556;2023-04-08T12:18:11;9.20;99.90
51908;DHT22;39320;53.214;6.556;2023-04-08T12:20:36;9.30;99.90
51908;DHT22;39320;53.214;6.556;2023-04-08T12:23:02;9.20;99.90
51908;DHT22;39320;53.214;6.556;2023-04-08T12:25:28;9.30;99.90
51908;DHT22;39320;53.214;6.556;2023-04-08T12:27:55;9.30;99.90
51908;DHT22;39320;53.214;6.556;2023-04-08T12:30:21;9.40;99.90
51908;DHT22;39320;53.214;6.556;2023-04-08T12:32:47;9.30;99.90
51908;DHT22;39320;53.214;6.556;2023-04-08T12:35:13;9.40;99.90
51908;DHT22;39320;53.214;6.556;2023-04-08T12:37:39;9.40;99.90
51908;DHT22;39320;53.214;6.556;2023-04-08T12:40:06;9.40;99.90
51908;DHT22;39320;53.214;6.556;2023-04-08T12:42:32;9.40;99.90
51908;DHT22;39320;53.214;6.556;2023-04-08T12:44:57;9.40;99.90
51908;DHT22;39320;53.214;6.556;2023-04-08T12:47:23;9.50;99.90
51908;DHT22;39320;53.214;6.556;2023-04-08T12:49:54;9.50;99.90
51908;DHT22;39320;53.214;6.556;2023-04-08T12:52:20;9.50;99.90
51908;DHT22;39320;53.214;6.556;2023-04-08T12:54:46;9.50;99.90
51908;DHT22;39320;53.214;6.556;2023-04-08T12:57:12;9.50;99.90
51908;DHT22;39320;53.214;6.556;2023-04-08T12:59:37;9.50;99.90
51908;DHT22;39320;53.214;6.556;2023-04-08T13:02:04;9.50;99.90
51908;DHT22;39320;53.214;6.556;2023-04-08T13:04:30;9.50;99.90
51908;DHT22;39320;53.214;6.556;2023-04-08T13:06:56;9.60;99.90
51908;DHT22;39320;53.214;6.556;2023-04-08T13:09:22;9.60;99.90
51908;DHT22;39320;53.214;6.556;2023-04-08T13:11:47;9.60;99.90
51908;DHT22;39320;53.214;6.556;2023-04-08T13:14:13;9.70;99.90
51908;DHT22;39320;53.214;6.556;2023-04-08T13:16:39;9.60;99.90
51908;DHT22;39320;53.214;6.556;2023-04-08T13:19:05;9.70;99.90
51908;DHT22;39320;53.214;6.556;2023-04-08T13:21:33;9.70;99.90
51908;DHT22;39320;53.214;6.556;2023-04-08T13:23:59;9.70;99.90
51908;DHT22;39320;53.214;6.556;2023-04-08T13:26:25;10.00;99.90
51908;DHT22;39320;53.214;6.556;2023-04-08T13:28:51;9.80;99.90
51908;DHT22;39320;53.214;6.556;2023-04-08T13:31:17;9.80;99.90
51908;DHT22;39320;53.214;6.556;2023-04-08T13:33:43;9.80;99.90
51908;DHT22;39320;53.214;6.556;2023-04-08T13:36:11;9.90;99.90
51908;DHT22;39320;53.214;6.556;2023-04-08T13:38:37;9.90;99.90
51908;DHT22;39320;53.214;6.556;2023-04-08T13:41:02;9.90;99.90
51908;DHT22;39320;53.214;6.556;2023-04-08T13:43:28;9.90;99.90
51908;DHT22;39320;53.214;6.556;2023-04-08T13:45:54;9.90;99.90
51908;DHT22;39320;53.214;6.556;2023-04-08T13:48:21;10.00;99.90
51908;DHT22;39320;53.214;6.556;2023-04-08T13:50:50;10.00;99.90
51908;DHT22;39320;53.214;6.556;2023-04-08T13:53:16;10.10;99.90
51908;DHT22;39320;53.214;6.556;2023-04-08T13:55:41;10.10;99.90
51908;DHT22;39320;53.214;6.556;2023-04-08T13:58:07;10.20;99.90
51908;DHT22;39320;53.214;6.556;2023-04-08T14:00:33;10.20;99.90
51908;DHT22;39320;53.214;6.556;2023-04-08T14:02:59;10.30;99.90
51908;DHT22;39320;53.214;6.556;2023-04-08T14:05:25;10.50;99.90
51908;DHT22;39320;53.214;6.556;2023-04-08T14:07:51;10.60;99.90
51908;DHT22;39320;53.214;6.556;2023-04-08T14:10:17;10.60;99.90
51908;DHT22;39320;53.214;6.556;2023-04-08T14:12:43;10.70;99.90
51908;DHT22;39320;53.214;6.556;2023-04-08T14:15:11;10.70;99.90
51908;DHT22;39320;53.214;6.556;2023-04-08T14:17:37;10.70;99.90
51908;DHT22;39320;53.214;6.556;2023-04-08T14:20:03;10.70;99.90
51908;DHT22;39320;53.214;6.556;2023-04-08T14:22:30;10.80;99.90
51908;DHT22;39320;53.214;6.556;2023-04-08T14:24:56;11.10;99.90
51908;DHT22;39320;53.214;6.556;2023-04-08T14:27:22;10.90;99.90
51908;DHT22;39320;53.214;6.556;2023-04-08T14:29:48;10.90;99.90
51908;DHT22;39320;53.214;6.556;2023-04-08T14:32:13;11.00;99.90
51908;DHT22;39320;53.214;6.556;2023-04-08T14:34:39;11.10;99.90
51908;DHT22;39320;53.214;6.556;2023-04-08T14:37:05;11.10;99.90
51908;DHT22;39320;53.214;6.556;2023-04-08T14:39:31;11.20;99.90
51908;DHT22;39320;53.214;6.556;2023-04-08T14:41:57;11.40;99.90
51908;DHT22;39320;53.214;6.556;2023-04-08T14:44:23;11.40;99.90
51908;DHT22;39320;53.214;6.556;2023-04-08T14:46:49;11.50;99.90
51908;DHT22;39320;53.214;6.556;2023-04-08T14:49:15;11.70;99.90
51908;DHT22;39320;53.214;6.556;2023-04-08T14:51:41;11.80;99.90
51908;DHT22;39320;53.214;6.556;2023-04-08T14:54:07;11.80;99.90
51908;DHT22;39320;53.214;6.556;2023-04-08T14:56:33;11.90;99.90
51908;DHT22;39320;53.214;6.556;2023-04-08T14:58:58;12.20;99.90
51908;DHT22;39320;53.214;6.556;2023-04-08T15:01:24;12.20;99.90
51908;DHT22;39320;53.214;6.556;2023-04-08T15:03:50;12.10;99.90
51908;DHT22;39320;53.214;6.556;2023-04-08T15:06:16;12.20;99.90
51908;DHT22;39320;53.214;6.556;2023-04-08T15:08:43;12.30;99.90
51908;DHT22;39320;53.214;6.556;2023-04-08T15:11:10;12.40;99.90
51908;DHT22;39320;53.214;6.556;2023-04-08T15:13:35;12.60;99.90
51908;DHT22;39320;53.214;6.556;2023-04-08T15:16:04;12.60;99.90
51908;DHT22;39320;53.214;6.556;2023-04-08T15:18:30;12.70;99.90
51908;DHT22;39320;53.214;6.556;2023-04-08T15:20:59;12.90;99.90
51908;DHT22;39320;53.214;6.556;2023-04-08T15:23:24;13.00;99.90
51908;DHT22;39320;53.214;6.556;2023-04-08T15:25:50;13.00;99.90
51908;DHT22;39320;53.214;6.556;2023-04-08T15:28:16;13.10;99.90
51908;DHT22;39320;53.214;6.556;2023-04-08T15:30:42;13.00;99.90
51908;DHT22;39320;53.214;6.556;2023-04-08T15:33:08;13.10;99.90
51908;DHT22;39320;53.214;6.556;2023-04-08T15:35:36;13.10;99.90
51908;DHT22;39320;53.214;6.556;2023-04-08T15:38:02;13.20;99.90
51908;DHT22;39320;53.214;6.556;2023-04-08T15:40:29;13.30;99.90
51908;DHT22;39320;53.214;6.556;2023-04-08T15:42:58;13.40;99.90
51908;DHT22;39320;53.214;6.556;2023-04-08T15:45:24;13.30;99.90
51908;DHT22;39320;53.214;6.556;2023-04-08T15:47:50;13.10;99.90
51908;DHT22;39320;53.214;6.556;2023-04-08T15:50:17;12.90;99.90
51908;DHT22;39320;53.214;6.556;2023-04-08T15:52:43;12.70;99.90
51908;DHT22;39320;53.214;6.556;2023-04-08T15:55:09;12.60;99.90
51908;DHT22;39320;53.214;6.556;2023-04-08T15:57:35;12.50;99.90
51908;DHT22;39320;53.214;6.556;2023-04-08T16:00:09;12.40;99.90
51908;DHT22;39320;53.214;6.556;2023-04-08T16:02:35;12.30;99.90
51908;DHT22;39320;53.214;6.556;2023-04-08T16:05:01;12.30;99.90